Map

Track Data

SID SEASON NUMBER BASIN SUBBASIN NAME ISO_TIME NATURE LAT LON WMO_WIND WMO_PRES WMO_AGENCY TRACK_TYPE DIST2LAND LANDFALL IFLAG USA_AGENCY USA_ATCF_ID USA_LAT USA_LON USA_RECORD USA_STATUS USA_WIND USA_PRES USA_SSHS USA_R34_NE USA_R34_SE USA_R34_SW USA_R34_NW USA_R50_NE USA_R50_SE USA_R50_SW USA_R50_NW USA_R64_NE USA_R64_SE USA_R64_SW USA_R64_NW USA_POCI USA_ROCI USA_RMW USA_EYE TOKYO_LAT TOKYO_LON TOKYO_GRADE TOKYO_WIND TOKYO_PRES TOKYO_R50_DIR TOKYO_R50_LONG TOKYO_R50_SHORT TOKYO_R30_DIR TOKYO_R30_LONG TOKYO_R30_SHORT TOKYO_LAND CMA_LAT CMA_LON CMA_CAT CMA_WIND CMA_PRES HKO_LAT HKO_LON HKO_CAT HKO_WIND HKO_PRES NEWDELHI_LAT NEWDELHI_LON NEWDELHI_GRADE NEWDELHI_WIND NEWDELHI_PRES NEWDELHI_CI NEWDELHI_DP NEWDELHI_POCI REUNION_LAT REUNION_LON REUNION_TYPE REUNION_WIND REUNION_PRES REUNION_TNUM REUNION_CI REUNION_RMW REUNION_R34_NE REUNION_R34_SE REUNION_R34_SW REUNION_R34_NW REUNION_R50_NE REUNION_R50_SE REUNION_R50_SW REUNION_R50_NW REUNION_R64_NE REUNION_R64_SE REUNION_R64_SW REUNION_R64_NW BOM_LAT BOM_LON BOM_TYPE BOM_WIND BOM_PRES BOM_TNUM BOM_CI BOM_RMW BOM_R34_NE BOM_R34_SE BOM_R34_SW BOM_R34_NW BOM_R50_NE BOM_R50_SE BOM_R50_SW BOM_R50_NW BOM_R64_NE BOM_R64_SE BOM_R64_SW BOM_R64_NW BOM_ROCI BOM_POCI BOM_EYE BOM_POS_METHOD BOM_PRES_METHOD NADI_LAT NADI_LON NADI_CAT NADI_WIND NADI_PRES WELLINGTON_LAT WELLINGTON_LON WELLINGTON_WIND WELLINGTON_PRES DS824_LAT DS824_LON DS824_STAGE DS824_WIND DS824_PRES TD9636_LAT TD9636_LON TD9636_STAGE TD9636_WIND TD9636_PRES TD9635_LAT TD9635_LON TD9635_WIND TD9635_PRES TD9635_ROCI NEUMANN_LAT NEUMANN_LON NEUMANN_CLASS NEUMANN_WIND NEUMANN_PRES MLC_LAT MLC_LON MLC_CLASS MLC_WIND MLC_PRES USA_GUST BOM_GUST BOM_GUST_PER REUNION_GUST REUNION_GUST_PER USA_SEAHGT USA_SEARAD_NE USA_SEARAD_SE USA_SEARAD_SW USA_SEARAD_NW STORM_SPEED STORM_DIR
1891259N12121 1891 33 WP MM NOT_NAMED 1891-09-15 16:00:00 NR 11.9000 120.900 main 40 39 __________O___ -1 11.9000 120.900 7 36 301
1891259N12121 1891 33 WP MM NOT_NAMED 1891-09-15 18:00:00 NR 12.5068 119.852 main 100 101 __________P___ -1 12.5068 119.852 7 35 300
1891259N12121 1891 33 WP MM NOT_NAMED 1891-09-15 21:00:00 NR 13.3735 118.329 main 216 227 __________P___ -1 13.3735 118.329 7 33 300
1891259N12121 1891 33 WP MM NOT_NAMED 1891-09-16 00:00:00 NR 14.1369 116.950 main 353 349 __________P___ -1 14.1369 116.950 7 28 299
1891259N12121 1891 33 WP MM NOT_NAMED 1891-09-16 03:00:00 NR 14.7423 115.810 main 442 439 __________P___ -1 14.7423 115.810 7 24 299
1891259N12121 1891 33 WP MM NOT_NAMED 1891-09-16 04:00:00 NR 14.9000 115.500 main 466 466 __________O___ -1 14.9000 115.500 3 18 297
1891259N12121 1891 33 WP MM NOT_NAMED 1891-09-16 06:00:00 NR 15.1441 114.997 main 513 511 __________P___ -1 15.1441 114.997 3 13 295
1891259N12121 1891 33 WP MM NOT_NAMED 1891-09-16 09:00:00 NR 15.3687 114.478 main 560 531 __________P___ -1 15.3687 114.478 3 9 293
1891259N12121 1891 33 WP MM NOT_NAMED 1891-09-16 12:00:00 NR 15.4869 114.146 main 531 508 __________P___ -1 15.4869 114.146 3 6 289
1891259N12121 1891 33 WP MM NOT_NAMED 1891-09-16 15:00:00 NR 15.5688 113.888 main 508 500 __________P___ -1 15.5688 113.888 3 5 289
1891259N12121 1891 33 WP MM NOT_NAMED 1891-09-16 16:00:00 NR 15.6000 113.800 main 500 477 __________O___ -1 15.6000 113.800 4 7 294
1891259N12121 1891 33 WP MM NOT_NAMED 1891-09-16 18:00:00 NR 15.7110 113.551 main 477 431 __________P___ -1 15.7110 113.551 4 8 295
1891259N12121 1891 33 WP MM NOT_NAMED 1891-09-16 21:00:00 NR 15.8776 113.191 main 431 386 __________P___ -1 15.8776 113.191 4 8 296
1891259N12121 1891 33 WP MM NOT_NAMED 1891-09-17 00:00:00 NR 16.0501 112.828 main 386 351 __________P___ -1 16.0501 112.828 4 8 296
1891259N12121 1891 33 WP MM NOT_NAMED 1891-09-17 03:00:00 NR 16.2347 112.439 main 351 335 __________P___ -1 16.2347 112.439 4 8 296
1891259N12121 1891 33 WP MM NOT_NAMED 1891-09-17 04:00:00 NR 16.3000 112.300 main 335 298 __________O___ -1 16.3000 112.300 4 10 298
1891259N12121 1891 33 WP MM NOT_NAMED 1891-09-17 06:00:00 NR 16.4569 112.001 main 298 247 __________P___ -1 16.4569 112.001 4 10 298
1891259N12121 1891 33 WP MM NOT_NAMED 1891-09-17 09:00:00 NR 16.7052 111.520 main 247 198 __________P___ -1 16.7052 111.520 4 11 297
1891259N12121 1891 33 WP MM NOT_NAMED 1891-09-17 12:00:00 NR 16.9442 111.010 main 198 149 __________P___ -1 16.9442 111.010 4 11 294
1891259N12121 1891 33 WP MM NOT_NAMED 1891-09-17 15:00:00 NR 17.1459 110.480 main 149 128 __________P___ -1 17.1459 110.480 4 11 291
1891259N12121 1891 33 WP MM NOT_NAMED 1891-09-17 16:00:00 NR 17.2000 110.300 main 128 102 __________O___ -1 17.2000 110.300 4 11 285
1891259N12121 1891 33 WP MM NOT_NAMED 1891-09-17 18:00:00 NR 17.2846 109.938 main 102 89 __________P___ -1 17.2846 109.938 4 11 281
1891259N12121 1891 33 WP MM NOT_NAMED 1891-09-17 21:00:00 NR 17.3613 109.390 main 90 90 __________P___ -1 17.3613 109.390 4 11 276
1891259N12121 1891 33 WP MM NOT_NAMED 1891-09-18 00:00:00 NR 17.3938 108.839 main 113 113 __________P___ -1 17.3938 108.839 4 11 272
1891259N12121 1891 33 WP MM NOT_NAMED 1891-09-18 03:00:00 NR 17.4004 108.285 main 116 104 __________P___ -1 17.4004 108.285 4 11 271
1891259N12121 1891 33 WP MM NOT_NAMED 1891-09-18 04:00:00 NR 17.4000 108.100 main 104 __________O___ -1 17.4000 108.100 4 11 270

Digital Typhoon Data and Search

About IBTrACS Database

This database is a web-friendly format of International Best Track Archive for Climate Stewardship (IBTrACS), a global best track data archive curated by NOAA dating back to 1842.

Updated: 2021-10-25